createdAt,value
2019-05-18T00:00:11.255Z,39.13
2019-05-18T00:02:40.769Z,37.57
2019-05-18T00:05:10.516Z,39.00
2019-05-18T00:07:40.352Z,39.10
2019-05-18T00:10:10.514Z,35.83
2019-05-18T00:12:40.013Z,36.47
2019-05-18T00:15:10.886Z,37.77
2019-05-18T00:17:40.325Z,36.10
2019-05-18T00:20:10.088Z,37.73
2019-05-18T00:22:43.246Z,35.87
2019-05-18T00:25:13.021Z,35.43
2019-05-18T00:27:42.463Z,34.73
2019-05-18T00:30:14.089Z,35.30
2019-05-18T00:32:43.540Z,34.30
2019-05-18T00:35:13.033Z,34.83
2019-05-18T00:37:42.473Z,36.13
2019-05-18T00:40:12.283Z,38.23
2019-05-18T00:42:41.778Z,36.20
2019-05-18T00:45:11.487Z,33.57
2019-05-18T00:47:42.179Z,35.80
2019-05-18T00:50:12.314Z,36.20
2019-05-18T00:52:42.146Z,35.43
2019-05-18T00:55:12.163Z,36.60
2019-05-18T00:57:41.984Z,37.20
2019-05-18T01:00:12.657Z,36.90
2019-05-18T01:02:42.107Z,37.33
2019-05-18T01:05:11.792Z,34.90
2019-05-18T01:07:41.283Z,36.10
2019-05-18T01:10:10.969Z,33.37
2019-05-18T01:12:40.460Z,37.93
2019-05-18T01:15:11.213Z,35.93
2019-05-18T01:17:40.624Z,37.43
2019-05-18T01:20:10.508Z,38.73
2019-05-18T01:22:39.940Z,36.90
2019-05-18T01:25:09.972Z,37.37
2019-05-18T01:27:39.490Z,37.30
2019-05-18T01:30:10.520Z,37.63
2019-05-18T01:32:39.943Z,36.80
2019-05-18T01:35:09.890Z,35.73
2019-05-18T01:37:39.310Z,37.37
2019-05-18T01:40:09.662Z,38.37
2019-05-18T01:42:43.772Z,37.33
2019-05-18T01:45:17.231Z,36.50
2019-05-18T01:47:45.227Z,36.10
2019-05-18T01:50:14.782Z,36.50
2019-05-18T01:52:44.228Z,35.73
2019-05-18T01:55:14.073Z,37.57
2019-05-18T01:57:43.517Z,39.70
2019-05-18T02:00:14.543Z,35.30
2019-05-18T02:02:43.970Z,38.50
2019-05-18T02:05:14.008Z,37.23
2019-05-18T02:07:43.809Z,37.93
2019-05-18T02:10:13.570Z,36.27
2019-05-18T02:12:42.998Z,35.57
2019-05-18T02:15:13.117Z,37.23
2019-05-18T02:17:42.551Z,38.57
2019-05-18T02:20:13.284Z,37.70
2019-05-18T02:22:42.725Z,37.97
2019-05-18T02:25:12.491Z,37.97
2019-05-18T02:27:41.943Z,35.97
2019-05-18T02:30:17.039Z,36.83
2019-05-18T02:32:45.305Z,38.10
2019-05-18T02:35:14.974Z,37.50
2019-05-18T02:37:44.708Z,38.07
2019-05-18T02:40:14.318Z,37.03
2019-05-18T02:43:03.067Z,34.50
2019-05-18T02:45:32.526Z,33.83
2019-05-18T02:48:02.271Z,37.40
2019-05-18T02:50:31.694Z,37.10
2019-05-18T02:53:01.484Z,35.77
2019-05-18T02:55:30.971Z,36.20
2019-05-18T02:58:00.477Z,34.37
2019-05-18T03:00:29.978Z,34.83
2019-05-18T03:02:59.490Z,35.70
2019-05-18T03:05:29.299Z,37.77
2019-05-18T03:07:58.709Z,36.60
2019-05-18T03:10:28.158Z,35.23
2019-05-18T03:12:57.593Z,35.90
2019-05-18T03:15:27.167Z,34.67
2019-05-18T03:17:56.605Z,35.83
2019-05-18T03:20:26.103Z,32.93
2019-05-18T03:22:55.626Z,34.20
2019-05-18T03:25:25.047Z,36.87
2019-05-18T03:27:54.860Z,34.23
2019-05-18T03:30:24.300Z,36.80
2019-05-18T03:32:53.724Z,37.50
2019-05-18T03:35:23.221Z,35.23
2019-05-18T03:37:52.641Z,34.23
2019-05-18T03:40:22.146Z,36.83
2019-05-18T03:42:51.581Z,35.00
2019-05-18T03:45:21.084Z,36.93
2019-05-18T03:47:50.660Z,37.27
2019-05-18T03:50:20.074Z,35.27
2019-05-18T03:52:49.521Z,37.70
2019-05-18T03:55:19.329Z,34.37
2019-05-18T03:57:48.749Z,35.37
2019-05-18T04:00:19.226Z,35.20
2019-05-18T04:02:48.648Z,37.20
2019-05-18T04:05:18.100Z,36.23
2019-05-18T04:07:47.524Z,34.33
2019-05-18T04:10:26.726Z,36.77
2019-05-18T04:12:56.144Z,36.43
2019-05-18T04:15:25.625Z,36.70
2019-05-18T04:17:55.082Z,35.93
2019-05-18T04:20:24.485Z,37.20
2019-05-18T04:22:53.905Z,35.97
2019-05-18T04:25:23.348Z,33.60
2019-05-18T04:27:52.776Z,34.73
2019-05-18T04:30:22.350Z,34.57
2019-05-18T04:32:51.759Z,32.60
2019-05-18T04:35:21.225Z,32.43
2019-05-18T04:37:51.093Z,35.03
2019-05-18T04:40:20.653Z,35.27
2019-05-18T04:42:50.090Z,35.20
2019-05-18T04:45:19.581Z,36.17
2019-05-18T04:47:49.115Z,35.83
2019-05-18T04:50:18.746Z,34.67
2019-05-18T04:52:48.209Z,35.30
2019-05-18T04:55:17.770Z,33.50
2019-05-18T04:57:47.247Z,35.03
2019-05-18T05:00:16.787Z,34.13
2019-05-18T05:02:46.203Z,34.70
2019-05-18T05:05:15.774Z,34.87
2019-05-18T05:07:45.262Z,35.67
2019-05-18T05:10:14.928Z,36.33
2019-05-18T05:12:44.462Z,34.77
2019-05-18T05:15:15.934Z,35.40
2019-05-18T05:17:45.386Z,34.93
2019-05-18T05:20:19.735Z,36.47
2019-05-18T05:22:47.223Z,35.30
2019-05-18T05:25:16.661Z,37.20
2019-05-18T05:27:46.088Z,37.53
2019-05-18T05:30:15.912Z,39.03
2019-05-18T05:32:45.340Z,37.37
2019-05-18T05:35:15.432Z,40.00
2019-05-18T05:37:44.912Z,38.23
2019-05-18T05:40:14.667Z,37.67
2019-05-18T05:42:44.186Z,38.47
2019-05-18T05:45:13.960Z,37.60
2019-05-18T05:47:43.428Z,37.97
2019-05-18T05:50:13.041Z,37.97
2019-05-18T05:52:42.496Z,37.60
2019-05-18T05:55:12.267Z,38.40
2019-05-18T05:57:42.011Z,38.57
2019-05-18T06:00:11.979Z,37.73
2019-05-18T06:02:41.404Z,38.17
2019-05-18T06:05:11.158Z,38.07
2019-05-18T06:07:40.732Z,38.53
2019-05-18T06:10:10.869Z,38.73
2019-05-18T06:12:40.394Z,38.43
2019-05-18T06:15:10.823Z,37.93
2019-05-18T06:17:40.241Z,37.43
2019-05-18T06:20:10.503Z,37.73
2019-05-18T06:22:40.231Z,38.17
2019-05-18T06:25:09.773Z,36.80
2019-05-18T06:27:39.329Z,37.53
2019-05-18T06:30:09.983Z,38.23
2019-05-18T06:32:39.476Z,38.30
2019-05-18T06:35:09.061Z,37.13
2019-05-18T06:37:38.506Z,38.57
2019-05-18T06:40:09.312Z,38.10
2019-05-18T06:42:38.806Z,39.20
2019-05-18T06:45:09.681Z,38.37
2019-05-18T06:47:39.190Z,39.33
2019-05-18T06:50:12.394Z,38.40
2019-05-18T06:52:41.574Z,39.90
2019-05-18T06:55:11.379Z,39.27
2019-05-18T06:57:41.226Z,40.07
2019-05-18T07:00:15.453Z,38.57
2019-05-18T07:02:45.465Z,39.13
2019-05-18T07:05:15.134Z,39.53
2019-05-18T07:07:44.584Z,38.20
2019-05-18T07:10:14.359Z,37.20
2019-05-18T07:12:43.797Z,40.10
2019-05-18T07:15:14.014Z,37.63
2019-05-18T07:17:43.513Z,38.87
2019-05-18T07:20:15.668Z,39.80
2019-05-18T07:22:45.092Z,37.60
2019-05-18T07:25:14.684Z,38.53
2019-05-18T07:27:44.110Z,37.30
2019-05-18T07:30:15.439Z,38.60
2019-05-18T07:32:44.950Z,39.37
2019-05-18T07:35:16.175Z,38.83
2019-05-18T07:37:45.691Z,39.93
2019-05-18T07:40:15.648Z,39.47
2019-05-18T07:42:45.068Z,38.87
2019-05-18T07:45:15.330Z,38.13
2019-05-18T07:47:44.775Z,39.23
2019-05-18T07:50:16.832Z,40.30
2019-05-18T07:52:46.262Z,39.90
2019-05-18T07:55:15.765Z,37.87
2019-05-18T07:57:45.570Z,39.60
2019-05-18T08:00:15.609Z,40.67
2019-05-18T08:02:45.123Z,40.87
2019-05-18T08:05:14.766Z,40.43
2019-05-18T08:07:44.224Z,39.33
2019-05-18T08:10:14.170Z,40.20
2019-05-18T08:12:43.913Z,39.90
2019-05-18T08:15:15.527Z,39.57
2019-05-18T08:17:44.965Z,40.20
2019-05-18T08:20:14.549Z,41.77
2019-05-18T08:22:43.960Z,41.87
2019-05-18T08:25:13.434Z,41.63
2019-05-18T08:27:43.267Z,42.73
2019-05-18T08:30:12.748Z,41.50
2019-05-18T08:32:42.202Z,40.30
2019-05-18T08:35:11.737Z,38.23
2019-05-18T08:37:41.145Z,39.83
2019-05-18T08:40:11.973Z,40.90
2019-05-18T08:42:41.382Z,41.43
2019-05-18T08:45:11.814Z,40.03
2019-05-18T08:47:41.416Z,42.03
2019-05-18T08:50:10.991Z,41.93
2019-05-18T08:52:40.430Z,41.33
2019-05-18T08:55:10.344Z,41.17
2019-05-18T08:57:40.159Z,42.47
2019-05-18T09:00:11.472Z,43.13
2019-05-18T09:02:40.894Z,42.67
2019-05-18T09:05:10.920Z,43.00
2019-05-18T09:07:40.313Z,42.00
2019-05-18T09:10:10.652Z,41.93
2019-05-18T09:12:40.080Z,41.87
2019-05-18T09:15:09.812Z,40.73
2019-05-18T09:17:39.228Z,40.33
2019-05-18T09:20:12.993Z,41.67
2019-05-18T09:22:42.793Z,40.93
2019-05-18T09:25:14.645Z,40.87
2019-05-18T09:27:44.076Z,42.13
2019-05-18T09:30:14.971Z,41.13
2019-05-18T09:32:44.399Z,38.67
2019-05-18T09:35:14.021Z,35.80
2019-05-18T09:37:45.984Z,38.70
2019-05-18T09:40:15.767Z,40.03
2019-05-18T09:42:45.508Z,39.80
2019-05-18T09:45:17.152Z,38.37
2019-05-18T09:47:46.631Z,38.50
2019-05-18T09:50:16.262Z,40.10
2019-05-18T09:52:46.583Z,37.60
2019-05-18T09:55:18.421Z,35.70
2019-05-18T09:57:47.864Z,38.97
2019-05-18T10:00:18.337Z,38.53
2019-05-18T10:02:47.783Z,37.67
2019-05-18T10:05:18.078Z,39.47
2019-05-18T10:07:47.538Z,37.60
2019-05-18T10:10:17.708Z,36.97
2019-05-18T10:12:47.381Z,37.67
2019-05-18T10:15:17.545Z,37.13
2019-05-18T10:17:46.947Z,38.03
2019-05-18T10:20:16.905Z,37.40
2019-05-18T10:22:58.936Z,38.80
2019-05-18T10:25:18.137Z,39.40
2019-05-18T10:27:49.278Z,36.57
2019-05-18T10:30:18.918Z,38.73
2019-05-18T10:32:48.337Z,37.73
2019-05-18T10:35:17.827Z,39.33
2019-05-18T10:37:47.524Z,38.50
2019-05-18T10:40:17.722Z,35.57
2019-05-18T10:42:47.134Z,37.67
2019-05-18T10:45:17.042Z,39.13
2019-05-18T10:47:46.563Z,37.47
2019-05-18T10:50:16.607Z,36.87
2019-05-18T10:52:46.055Z,37.17
2019-05-18T10:55:15.747Z,37.38
2019-05-18T10:57:45.189Z,39.17
2019-05-18T11:00:15.837Z,37.50
2019-05-18T11:02:45.563Z,36.10
2019-05-18T11:05:15.702Z,37.07
2019-05-18T11:07:45.214Z,39.93
2019-05-18T11:10:14.971Z,37.87
2019-05-18T11:12:44.409Z,38.57
2019-05-18T11:15:14.465Z,39.03
2019-05-18T11:17:44.014Z,36.63
2019-05-18T11:20:14.453Z,36.57
2019-05-18T11:22:44.219Z,38.47
2019-05-18T11:25:15.126Z,35.87
2019-05-18T11:27:44.583Z,37.85
2019-05-18T11:30:16.556Z,37.08
2019-05-18T11:32:46.012Z,34.08
2019-05-18T11:35:17.494Z,33.70
2019-05-18T11:37:47.022Z,33.18
2019-05-18T11:40:17.317Z,36.08
2019-05-18T11:42:46.781Z,35.25
2019-05-18T11:45:18.037Z,34.63
2019-05-18T11:47:47.572Z,33.02
2019-05-18T11:50:18.072Z,34.00
2019-05-18T11:52:47.635Z,34.13
2019-05-18T11:55:19.000Z,33.55
2019-05-18T11:57:48.544Z,35.35
2019-05-18T12:00:20.209Z,33.37
2019-05-18T12:02:49.675Z,34.13
2019-05-18T12:05:19.267Z,33.90
2019-05-18T12:07:48.764Z,34.50
2019-05-18T12:10:18.832Z,33.50
2019-05-18T12:12:48.514Z,30.87
2019-05-18T12:15:19.032Z,32.97
2019-05-18T12:17:48.478Z,30.60
2019-05-18T12:20:19.630Z,32.00
2019-05-18T12:22:49.071Z,31.67
2019-05-18T12:25:18.659Z,29.65
2019-05-18T12:28:07.565Z,29.63
2019-05-18T12:30:37.417Z,32.23
2019-05-18T12:33:06.952Z,29.80
2019-05-18T12:35:36.461Z,28.77
2019-05-18T12:38:06.062Z,29.50
2019-05-18T12:40:37.344Z,30.10
2019-05-18T12:43:06.905Z,31.57
2019-05-18T12:45:36.313Z,30.43
2019-05-18T12:48:05.849Z,28.70
2019-05-18T12:50:35.785Z,27.90
2019-05-18T12:53:05.291Z,28.30
2019-05-18T12:55:34.735Z,30.17
2019-05-18T12:58:04.194Z,26.60
2019-05-18T13:00:33.847Z,29.47
2019-05-18T13:03:03.351Z,27.05
2019-05-18T13:05:32.900Z,29.00
2019-05-18T13:08:02.369Z,27.93
2019-05-18T13:10:32.253Z,29.25
2019-05-18T13:13:01.808Z,29.02
2019-05-18T13:15:31.350Z,27.95
2019-05-18T13:18:00.850Z,28.95
2019-05-18T13:20:30.381Z,27.70
2019-05-18T13:22:59.838Z,26.12
2019-05-18T13:25:29.314Z,25.45
2019-05-18T13:27:58.926Z,25.92
2019-05-18T13:30:30.603Z,23.67
2019-05-18T13:33:00.185Z,24.47
2019-05-18T13:35:32.424Z,25.70
2019-05-18T13:38:01.847Z,26.63
2019-05-18T13:40:31.671Z,25.32
2019-05-18T13:43:01.698Z,25.80
2019-05-18T13:45:31.147Z,22.70
2019-05-18T13:48:00.564Z,28.13
2019-05-18T13:50:30.579Z,27.97
2019-05-18T13:53:00.026Z,26.80
2019-05-18T13:55:29.487Z,27.70
2019-05-18T13:57:58.913Z,27.73
2019-05-18T14:00:28.349Z,26.87
2019-05-18T14:02:57.790Z,23.53
2019-05-18T14:05:27.262Z,23.57
2019-05-18T14:07:56.677Z,24.50
2019-05-18T14:10:26.216Z,22.07
2019-05-18T14:12:55.657Z,23.37
2019-05-18T14:15:25.173Z,24.73
2019-05-18T14:17:54.987Z,21.85
2019-05-18T14:20:26.306Z,22.17
2019-05-18T14:22:55.669Z,23.10
2019-05-18T14:25:25.690Z,18.17
2019-05-18T14:27:55.484Z,19.90
2019-05-18T14:30:25.751Z,22.62
2019-05-18T14:32:55.197Z,22.93
2019-05-18T14:35:24.710Z,22.70
2019-05-18T14:37:54.426Z,23.70
2019-05-18T14:40:25.725Z,20.23
2019-05-18T14:42:55.170Z,19.70
2019-05-18T14:45:24.652Z,20.90
2019-05-18T14:47:54.177Z,21.00
2019-05-18T14:50:23.788Z,21.07
2019-05-18T14:52:53.295Z,18.80
2019-05-18T14:55:33.313Z,21.37
2019-05-18T14:57:53.949Z,22.00
2019-05-18T15:00:23.479Z,22.60
2019-05-18T15:02:52.884Z,19.57
2019-05-18T15:05:22.468Z,19.37
2019-05-18T15:07:51.985Z,19.07
2019-05-18T15:10:21.656Z,34.90
2019-05-18T15:12:51.187Z,20.70
2019-05-18T15:15:26.396Z,18.27
2019-05-18T15:17:56.001Z,18.73
2019-05-18T15:20:25.727Z,18.55
2019-05-18T15:22:55.140Z,19.70
2019-05-18T15:25:24.700Z,15.53
2019-05-18T15:27:54.546Z,17.50
2019-05-18T15:30:24.454Z,17.30
2019-05-18T15:32:54.000Z,19.20
2019-05-18T15:35:23.542Z,17.73
2019-05-18T15:37:56.837Z,18.13
2019-05-18T15:40:26.293Z,16.70
2019-05-18T15:42:55.760Z,19.55
2019-05-18T15:45:25.301Z,17.27
2019-05-18T15:47:54.728Z,16.93
2019-05-18T15:50:24.370Z,18.45
2019-05-18T15:52:53.904Z,17.57
2019-05-18T15:55:25.352Z,18.87
2019-05-18T15:57:54.788Z,18.30
2019-05-18T16:00:24.317Z,16.70
2019-05-18T16:02:53.763Z,17.50
2019-05-18T16:05:23.252Z,18.00
2019-05-18T16:07:52.718Z,15.97
2019-05-18T16:10:22.680Z,16.83
2019-05-18T16:12:52.106Z,16.30
2019-05-18T16:15:21.692Z,16.47
2019-05-18T16:17:51.163Z,17.40
2019-05-18T16:20:21.564Z,16.87
2019-05-18T16:22:51.088Z,17.20
2019-05-18T16:25:20.840Z,18.70
2019-05-18T16:27:50.295Z,16.93
2019-05-18T16:30:20.076Z,16.90
2019-05-18T16:32:49.662Z,18.30
2019-05-18T16:35:19.324Z,18.80
2019-05-18T16:37:48.892Z,17.57
2019-05-18T16:40:18.750Z,22.20
2019-05-18T16:42:48.207Z,32.07
2019-05-18T16:45:18.063Z,36.63
2019-05-18T16:47:47.474Z,38.27
2019-05-18T16:50:18.080Z,36.70
2019-05-18T16:52:47.503Z,36.80
2019-05-18T16:55:17.838Z,34.60
2019-05-18T16:57:47.270Z,34.17
2019-05-18T17:00:17.295Z,35.93
2019-05-18T17:02:46.819Z,33.03
2019-05-18T17:05:16.999Z,33.53
2019-05-18T17:07:46.498Z,34.27
2019-05-18T17:10:16.473Z,30.77
2019-05-18T17:12:45.981Z,29.53
2019-05-18T17:15:16.068Z,32.13
2019-05-18T17:17:45.516Z,32.57
2019-05-18T17:20:15.410Z,31.37
2019-05-18T17:22:44.865Z,29.20
2019-05-18T17:25:14.582Z,31.17
2019-05-18T17:27:44.022Z,30.40
2019-05-18T17:30:13.712Z,31.17
2019-05-18T17:32:43.145Z,30.07
2019-05-18T17:35:13.086Z,30.37
2019-05-18T17:37:42.537Z,31.17
2019-05-18T17:40:12.479Z,36.47
2019-05-18T17:42:41.904Z,42.17
2019-05-18T17:45:12.565Z,43.20
2019-05-18T17:47:42.003Z,45.40
2019-05-18T17:50:12.128Z,44.83
2019-05-18T17:52:41.790Z,46.67
2019-05-18T17:55:11.716Z,44.50
2019-05-18T17:57:41.244Z,44.57
2019-05-18T18:00:14.186Z,47.53
2019-05-18T18:02:43.558Z,47.63
2019-05-18T18:05:13.609Z,46.30
2019-05-18T18:07:43.036Z,44.93
2019-05-18T18:10:14.021Z,46.43
2019-05-18T18:12:43.505Z,48.30
2019-05-18T18:15:13.881Z,45.43
2019-05-18T18:17:43.296Z,42.90
2019-05-18T18:20:13.841Z,40.87
2019-05-18T18:22:43.756Z,41.67
2019-05-18T18:25:13.507Z,40.67
2019-05-18T18:27:42.973Z,39.57
2019-05-18T18:30:12.882Z,40.20
2019-05-18T18:32:42.858Z,40.90
2019-05-18T18:35:12.528Z,39.23
2019-05-18T18:37:42.035Z,39.37
2019-05-18T18:40:12.082Z,40.30
2019-05-18T18:42:41.501Z,41.13
2019-05-18T18:45:11.617Z,40.63
2019-05-18T18:47:41.046Z,41.40
2019-05-18T18:50:10.912Z,39.93
2019-05-18T18:52:40.810Z,41.57
2019-05-18T18:55:11.163Z,42.10
2019-05-18T18:57:42.236Z,42.90
2019-05-18T19:00:12.798Z,43.37
2019-05-18T19:02:42.603Z,43.80
2019-05-18T19:05:12.975Z,43.47
2019-05-18T19:07:44.047Z,42.27
2019-05-18T19:10:13.836Z,42.07
2019-05-18T19:12:43.404Z,40.07
2019-05-18T19:15:21.892Z,41.77
2019-05-18T19:17:51.342Z,42.10
2019-05-18T19:20:20.830Z,41.17
2019-05-18T19:22:50.411Z,40.23
2019-05-18T19:25:20.094Z,42.07
2019-05-18T19:27:54.954Z,41.50
2019-05-18T19:30:21.143Z,41.70
2019-05-18T19:32:50.552Z,41.43
2019-05-18T19:35:19.996Z,39.80
2019-05-18T19:37:49.439Z,41.47
2019-05-18T19:40:19.312Z,41.27
2019-05-18T19:42:48.739Z,39.67
2019-05-18T19:45:18.391Z,41.57
2019-05-18T19:47:47.840Z,41.90
2019-05-18T19:50:17.714Z,43.73
2019-05-18T19:52:47.260Z,43.43
2019-05-18T19:55:16.766Z,42.57
2019-05-18T19:57:46.191Z,43.23
2019-05-18T20:00:16.605Z,45.03
2019-05-18T20:02:46.109Z,42.90
2019-05-18T20:05:15.917Z,43.00
2019-05-18T20:07:45.753Z,44.47
2019-05-18T20:10:15.403Z,44.10
2019-05-18T20:12:44.902Z,45.97
2019-05-18T20:15:16.739Z,44.33
2019-05-18T20:17:46.204Z,44.63
2019-05-18T20:20:16.747Z,44.20
2019-05-18T20:22:46.361Z,44.00
2019-05-18T20:25:16.103Z,46.77
2019-05-18T20:27:45.536Z,44.27
2019-05-18T20:30:15.346Z,43.70
2019-05-18T20:32:46.826Z,44.27
2019-05-18T20:35:16.927Z,44.70
2019-05-18T20:37:46.361Z,43.10
2019-05-18T20:40:16.323Z,45.57
2019-05-18T20:42:45.846Z,43.23
2019-05-18T20:45:15.508Z,43.63
2019-05-18T20:47:45.326Z,43.53
2019-05-18T20:50:16.718Z,42.93
2019-05-18T20:52:46.492Z,43.70
2019-05-18T20:55:16.056Z,44.83
2019-05-18T20:57:45.481Z,43.53
2019-05-18T21:00:15.474Z,42.97
2019-05-18T21:02:44.932Z,42.83
2019-05-18T21:05:15.799Z,44.47
2019-05-18T21:07:45.216Z,41.63
2019-05-18T21:10:14.936Z,43.80
2019-05-18T21:12:44.366Z,41.47
2019-05-18T21:15:14.643Z,40.43
2019-05-18T21:17:44.159Z,39.23
2019-05-18T21:20:13.996Z,39.60
2019-05-18T21:22:43.457Z,40.53
2019-05-18T21:25:13.039Z,37.27
2019-05-18T21:27:42.472Z,39.30
2019-05-18T21:30:12.331Z,38.90
2019-05-18T21:32:41.852Z,42.27
2019-05-18T21:35:11.384Z,41.50
2019-05-18T21:37:40.836Z,39.37
2019-05-18T21:40:11.267Z,37.87
2019-05-18T21:42:40.772Z,40.60
2019-05-18T21:45:10.399Z,37.33
2019-05-18T21:47:40.227Z,40.20
2019-05-18T21:50:10.003Z,40.93
2019-05-18T21:52:41.972Z,40.33
2019-05-18T21:55:11.099Z,41.63
2019-05-18T21:57:40.605Z,41.67
2019-05-18T22:00:10.443Z,40.73
2019-05-18T22:02:39.917Z,42.87
2019-05-18T22:05:09.513Z,39.67
2019-05-18T22:07:38.963Z,42.07
2019-05-18T22:10:24.425Z,42.57
2019-05-18T22:12:40.697Z,43.97
2019-05-18T22:15:11.116Z,42.03
2019-05-18T22:17:58.342Z,42.23
2019-05-18T22:20:27.847Z,42.00
2019-05-18T22:22:57.269Z,42.17
2019-05-18T22:25:26.715Z,43.67
2019-05-18T22:27:56.140Z,42.80
2019-05-18T22:30:25.588Z,42.50
2019-05-18T22:32:55.004Z,43.50
2019-05-18T22:35:24.827Z,43.27
2019-05-18T22:37:54.314Z,43.00
2019-05-18T22:40:25.373Z,41.50
2019-05-18T22:42:54.822Z,44.40
2019-05-18T22:45:27.853Z,44.20
2019-05-18T22:48:00.485Z,42.67
2019-05-18T22:50:29.886Z,43.50
2019-05-18T22:52:59.389Z,43.57
2019-05-18T22:55:28.892Z,42.97
2019-05-18T22:57:58.314Z,41.03
2019-05-18T23:00:37.403Z,46.00
2019-05-18T23:03:11.328Z,45.07
2019-05-18T23:05:47.169Z,46.20
2019-05-18T23:08:18.498Z,45.63
2019-05-18T23:10:59.505Z,45.77
2019-05-18T23:13:31.779Z,43.30
2019-05-18T23:16:01.198Z,44.10
2019-05-18T23:18:30.650Z,45.87
2019-05-18T23:21:00.092Z,43.63
2019-05-18T23:23:29.530Z,46.53
2019-05-18T23:25:58.954Z,46.77
2019-05-18T23:28:28.380Z,43.90
2019-05-18T23:30:57.904Z,46.97
2019-05-18T23:33:27.395Z,46.93
2019-05-18T23:35:56.820Z,46.50
2019-05-18T23:38:26.256Z,46.27
2019-05-18T23:40:55.985Z,46.40
2019-05-18T23:43:25.417Z,46.57
2019-05-18T23:45:54.840Z,46.60
2019-05-18T23:48:24.285Z,47.83
2019-05-18T23:50:53.727Z,47.53
2019-05-18T23:53:23.295Z,46.77
2019-05-18T23:55:52.760Z,47.43
2019-05-18T23:58:22.191Z,48.40
